• Join FlightAware (Why Join?)
  • Login
  • US Flag 
08:50AM EST


 

Airport Tracker/Info


-or-


 

Live Flight TrackerFlight Track Log ✈ SWA118 ✈ 28-Feb-2014 ✈ KLAS - KPDX

Flight Track Log - Related Links

Times and Time Zones

All times are in EST time to prevent confusion due to time zone crossing. See the SWA118 flight status page for this flight to view local times or setup timezone preferences in your user account.

Time Position Orientation Groundspeed Altitude Reporting Facility
EST Latitude Longitude Course Direction KTS MPH feet Rate Location/Type
04:26PM 36.0767 -115.1706 270° West 158 182 3,100  Level Los Angeles Center
04:28PM 36.0581 -115.2644 256° West 236 272 5,000 1,920 Climbing Los Angeles Center
04:29PM 35.9953 -115.2931 200° South 242 278 7,600 2,460 Climbing Los Angeles Center
04:29PM 35.9953 -115.2914 90° East 245 282 7,600 3,120 Level Los Angeles Center
04:30PM 35.9406 -115.3403 216° Southwest 243 280 10,800 3,060 Climbing Los Angeles Center
04:30PM 35.9419 -115.3386 44° Northeast 242 278 10,800 3,000 Level Los Angeles Center
04:31PM 35.8883 -115.4158 229° Southwest 281 323 14,000 3,000 Climbing Los Angeles Center
04:32PM 35.8834 -115.8342 270° West  Level FlightAware Approximate
04:32PM 35.8883 -115.5183 270° West 299 344 17,100  Level Los Angeles Center
04:33PM 35.8900 -115.6311 271° West 306 352 20,600 2,820 Climbing Los Angeles Center
04:34PM 35.8919 -115.7367 271° West 309 356 23,000 2,160 Climbing Los Angeles Center
04:35PM 35.8939 -115.8436 271° West 329 379 25,100 2,100 Climbing Los Angeles Center
04:36PM 35.9044 -115.9708 276° West 349 402 27,400 1,980 Climbing Los Angeles Center
04:37PM 35.9839 -116.0714 314° West 413 475 29,200 1,260 Climbing Los Angeles Center
04:38PM 36.0833 -116.1867 317° Northwest 440 506 30,100 1,440 Climbing Los Angeles Center
04:39PM 36.1669 -116.2833 317° Northwest 458 527 32,200 2,040 Climbing Los Angeles Center
04:40PM 36.2761 -116.4089 317° Northwest 450 518 34,400 1,740 Climbing Los Angeles Center
04:41PM 36.3653 -116.5125 317° Northwest 443 510 35,800 720 Climbing Los Angeles Center
04:42PM 36.4583 -116.6114 319° Northwest 451 519 36,000 60 Climbing Los Angeles Center
04:43PM 36.5739 -116.7142 324° Northwest 454 522 36,000  Level Los Angeles Center
04:44PM 36.6747 -116.8067 324° Northwest 455 524 36,000  Level Los Angeles Center
04:45PM 36.7608 -116.8817 325° Northwest 449 517 36,000  Level Los Angeles Center
04:46PM 36.8767 -116.9894 323° Northwest 452 520 36,000  Level Los Angeles Center
04:47PM 36.9797 -117.0825 324° Northwest 457 526 36,000  Level Los Angeles Center
04:48PM 37.0833 -117.1767 324° Northwest 462 532 36,000  Level Los Angeles Center
04:49PM 37.1869 -117.2703 324° Northwest 460 529 36,000  Level Los Angeles Center
04:50PM 37.3119 -117.3833 324° Northwest 460 529 36,000  Level Los Angeles Center
04:52PM 37.4144 -117.4764 324° Northwest 451 519 36,000  Level Oakland Center
04:53PM 37.5192 -117.5756 323° Northwest 464 534 36,000  Level Oakland Center
04:54PM 37.6253 -117.6714 324° Northwest 465 535 36,000  Level Oakland Center
04:55PM 37.7300 -117.7694 323° Northwest 465 535 36,000  Level Oakland Center
04:56PM 37.8558 -117.8869 324° Northwest 465 535 36,000  Level Oakland Center
04:57PM 37.9608 -117.9847 324° Northwest 465 535 36,000  Level Oakland Center
04:58PM 38.0667 -118.0844 323° Northwest 469 540 36,000  Level Oakland Center
04:59PM 38.1744 -118.1878 323° Northwest 475 547 36,000  Level Oakland Center
05:00PM 38.2817 -118.2894 323° Northwest 480 552 36,000  Level Oakland Center
05:01PM 38.3883 -118.3903 323° Northwest 479 551 36,000  Level Oakland Center
05:02PM 38.4944 -118.4914 323° Northwest 476 548 36,000  Level Oakland Center
05:03PM 38.6017 -118.5956 323° Northwest 479 551 36,000  Level Oakland Center
05:04PM 38.7078 -118.6969 323° Northwest 477 549 36,000  Level Oakland Center
05:05PM 38.8111 -118.7986 323° Northwest 471 542 36,000  Level Oakland Center
05:06PM 38.9144 -118.8983 323° Northwest 464 534 36,000  Level Oakland Center
05:07PM 39.0231 -118.9914 326° Northwest 465 535 36,000  Level Oakland Center
05:08PM 39.1408 -119.0683 333° Northwest 469 540 36,000  Level Oakland Center
05:09PM 39.2572 -119.1483 332° Northwest 467 537 36,000  Level Oakland Center
05:10PM 39.3739 -119.2269 332° Northwest 468 539 36,000  Level Oakland Center
05:11PM 39.4894 -119.3067 332° Northwest 466 536 36,000  Level Oakland Center
05:12PM 39.6050 -119.3853 332° Northwest 466 536 36,000  Level Oakland Center
05:13PM 39.7194 -119.4656 332° Northwest 466 536 36,000  Level Oakland Center
05:14PM 39.8583 -119.5606 332° Northwest 468 539 36,000  Level Oakland Center
05:15PM 39.9742 -119.6389 333° Northwest 468 539 36,000  Level Oakland Center
05:16PM 40.0883 -119.7192 332° Northwest 465 535 36,000  Level Oakland Center
05:17PM 40.2047 -119.8000 332° Northwest 471 542 36,000  Level Oakland Center
05:18PM 40.3228 -119.8825 332° Northwest 480 552 36,000  Level Oakland Center
05:19PM 40.4417 -119.9622 333° Northwest 481 554 36,000  Level Oakland Center
05:20PM 40.5550 -120.0444 331° Northwest 469 540 36,000  Level Oakland Center
05:21PM 40.6561 -120.1219 330° Northwest 465 535 36,000  Level Oakland Center
05:22PM 40.7922 -120.2175 332° Northwest 463 533 36,000  Level Oakland Center
05:23PM 40.9089 -120.2964 333° Northwest 471 542 36,000  Level Oakland Center
05:24PM 41.0217 -120.3783 331° Northwest 466 536 36,000  Level Oakland Center
05:25PM 41.1358 -120.4603 332° Northwest 466 536 36,000  Level Oakland Center
05:26PM 41.2517 -120.5428 332° Northwest 473 544 36,000  Level Oakland Center
05:27PM 41.3642 -120.6253 331° Northwest 466 536 36,000  Level Oakland Center
05:28PM 41.4767 -120.7081 331° Northwest 464 534 36,000  Level Oakland Center
05:29PM 41.5889 -120.7903 331° Northwest 463 533 36,000  Level Oakland Center
05:30PM 41.7017 -120.8733 331° Northwest 467 537 36,000  Level Oakland Center
05:31PM 41.8133 -120.9558 331° Northwest 461 531 36,000  Level Oakland Center
05:32PM 41.9244 -121.0383 331° Northwest 460 529 36,000  Level Oakland Center
05:33PM 42.0583 -121.1375 331° Northwest 460 529 36,000  Level Oakland Center
05:35PM 42.2144 -121.2536 331° Northwest 464 534 36,000  Level Seattle Center
05:36PM 42.3261 -121.3358 331° Northwest 459 528 36,000  Level Seattle Center
05:37PM 42.4364 -121.4194 331° Northwest 459 528 36,000  Level Seattle Center
05:38PM 42.5444 -121.5025 330° Northwest 450 518 36,000  Level Seattle Center
05:39PM 42.6333 -121.6200 316° Northwest 449 517 36,000  Level Seattle Center
05:40PM 42.7211 -121.7458 314° West 454 522 36,000  Level Seattle Center
05:41PM 42.8069 -121.8656 314° West 449 517 36,000  Level Seattle Center
05:42PM 42.8964 -121.9911 314° West 459 528 36,000  Level Seattle Center
05:43PM 42.9869 -122.1117 316° Northwest 456 525 36,000  Level Seattle Center
05:44PM 43.0858 -122.2422 316° Northwest 450 518 36,000  Level Seattle Center
05:45PM 43.1692 -122.3781 310° West 462 532 36,000  Level Seattle Center
05:46PM 43.2506 -122.5097 310° West 454 522 36,000  Level Seattle Center
05:47PM 43.3411 -122.6247 317° Northwest 453 521 36,000  Level Seattle Center
05:48PM 43.4636 -122.6453 353° North 441 507 36,000  Level Seattle Center
05:49PM 43.5847 -122.6647 353° North 444 511 36,000  Level Seattle Center
05:50PM 43.7056 -122.6842 353° North 438 504 36,000 -720 Level Seattle Center
05:51PM 43.8256 -122.7019 354° North 435 501 34,600 -2,280 Descending Seattle Center
05:52PM 43.9664 -122.7222 354° North 427 491 31,400 -2,640 Descending Seattle Center
05:53PM 44.0811 -122.7411 353° North 419 482 29,300 -2,040 Descending Seattle Center
05:54PM 44.1919 -122.7506 357° North 404 465 27,300 -2,040 Descending Seattle Center
05:55PM 44.3006 -122.7375 North 394 453 25,200 -2,040 Descending Seattle Center
05:56PM 44.4022 -122.7275 North 390 449 23,200 -1,980 Descending Seattle Center
05:57PM 44.5075 -122.7175 North 383 441 21,200 -1,920 Descending Seattle Center
05:58PM 44.6097 -122.7072 North 374 430 19,300 -2,460 Descending Seattle Center
05:58PM 44.6664 -122.7039 North 369 425 17,700 -2,760 Descending Seattle Center
05:59PM 44.7214 -122.6969 North 362 417 16,700 -1,620 Descending Seattle Center
05:59PM 44.7106 -122.6983 185° South 368 423 16,800 -1,920 Climbing Seattle Center
06:00PM 44.8172 -122.6889 North 350 403 14,800 -2,280 Descending Seattle Center
06:00PM 44.8267 -122.6864 11° North 357 411 14,500 -1,620 Descending Seattle Center
06:01PM 44.9131 -122.6808 North 339 390 13,200 -1,620 Descending Seattle Center
06:01PM 44.9203 -122.6786 12° North 346 398 12,900 -1,440 Descending Seattle Center
06:02PM 45.0103 -122.6992 351° North 334 384 11,700 -1,320 Descending Seattle Center
06:03PM 45.0889 -122.7139 352° North 304 350 10,400 -1,500 Descending Seattle Center
06:03PM 45.0944 -122.7156 348° North 317 365 10,200 -1,500 Descending Seattle Center
06:04PM 45.1844 -122.7339 352° North 301 346 8,800 -1,380 Descending Seattle Center
06:04PM 45.1911 -122.7369 342° North 300 345 8,700 -1,320 Descending Seattle Center
06:05PM 45.2639 -122.7489 353° North 289 333 7,500 -1,320 Descending Seattle Center
06:05PM 45.2697 -122.7511 345° North 287 330 7,400 -540 Descending Seattle Center
06:06PM 45.3414 -122.7647 352° North 282 325 7,000 -300 Descending Seattle Center
06:06PM 45.3469 -122.7692 331° Northwest 280 322 7,100 -900 Climbing Seattle Center
06:07PM 45.4153 -122.7969 344° North 278 320 6,100 -1,200 Descending Seattle Center
06:08PM 45.4856 -122.8411 336° Northwest 277 319 4,800 -1,380 Descending Seattle Center
06:08PM 45.5069 -122.8553 335° Northwest 273 314 4,300 -1,320 Descending Seattle Center
06:09PM 45.5553 -122.8481 North 263 303 3,500 -1,260 Descending Seattle Center
06:09PM 45.5614 -122.8439 26° Northeast 265 305 3,400 -300 Descending Seattle Center
06:10PM 45.6161 -122.8050 26° Northeast 223 257 3,200 -300 Descending Seattle Center
06:10PM 45.6211 -122.8033 13° North 232 267 3,100 -1,260 Descending Seattle Center
06:11PM 45.6467 -122.7558 52° Northeast 155 178 1,900 -1,140 Descending Seattle Center
06:11PM 45.6447 -122.7531 135° Southeast 141 162 1,900 -540 Level Seattle Center
06:12PM 45.6258 -122.7022 118° Southeast 151 174 1,400 -540 Descending Seattle Center
06:12PM 45.6258 -122.7022 118° Southeast 156 180 1,400 -780 Level Seattle Center
06:13PM 45.6081 -122.6561 119° Southeast 136 157 600 -780 Descending Seattle Center
06:13PM 45.6075 -122.6542 112° Southeast 129 148 600  Level Seattle Center
06:16PM 45.5887 -122.5969 60° Northeast  Level Estimated
06:23PM 45.5887 -122.5969 60° Northeast  Level Estimated
06:24PM 45.5887 -122.5969 60° Northeast  Level Estimated